Aurora, New Mexico
Current Conditions -  °F | °C
As of 3:53 AM on Thursday 27 Nov 2014 (Local Time) from KLVS Reporting Station
Clear Clear  
Wind Chill: 28°   Ceiling: Unl
Heat Index: 34°   Visibility: 10mi
Dew Point: 15°   Wind: 7mph
Humidity: 46%   Direction: 310°NW
Pressure: 30.39"   Gusts: NA
Location:  36.0243°N, 105.005°W
Report Text: KLVS 271053Z AUTO 31006KT 10SM CLR 01/M09 A3039 RMK AO2 SLP239 T00111094
Loading
Personal Weather Stations






























Interactive Weather Map New forecast layout! Learn more

10-Day Weather Forecast

Advertisements
Track Severe Weather on mobile